sensor_id;sensor_type;location;lat;lon;timestamp;P1;durP1;ratioP1;P2;durP2;ratioP2
44774;SDS011;31340;51.402;0.016;2023-08-01T00:00:27;16.60;;;4.68;;
44774;SDS011;31340;51.402;0.016;2023-08-01T00:02:55;16.83;;;4.78;;
44774;SDS011;31340;51.402;0.016;2023-08-01T00:05:23;16.42;;;4.95;;
44774;SDS011;31340;51.402;0.016;2023-08-01T00:07:54;21.00;;;5.75;;
44774;SDS011;31340;51.402;0.016;2023-08-01T00:10:22;14.13;;;4.45;;
44774;SDS011;31340;51.402;0.016;2023-08-01T00:12:49;15.88;;;5.55;;
44774;SDS011;31340;51.402;0.016;2023-08-01T00:15:17;11.40;;;5.05;;
44774;SDS011;31340;51.402;0.016;2023-08-01T00:17:45;18.98;;;5.47;;
44774;SDS011;31340;51.402;0.016;2023-08-01T00:20:12;16.05;;;5.38;;
44774;SDS011;31340;51.402;0.016;2023-08-01T00:22:40;20.25;;;5.90;;
44774;SDS011;31340;51.402;0.016;2023-08-01T00:25:08;11.32;;;4.50;;
44774;SDS011;31340;51.402;0.016;2023-08-01T00:27:35;15.27;;;5.22;;
44774;SDS011;31340;51.402;0.016;2023-08-01T00:30:07;15.98;;;5.68;;
44774;SDS011;31340;51.402;0.016;2023-08-01T00:32:35;18.08;;;5.57;;
44774;SDS011;31340;51.402;0.016;2023-08-01T00:35:04;14.68;;;5.65;;
44774;SDS011;31340;51.402;0.016;2023-08-01T00:37:31;23.00;;;6.15;;
44774;SDS011;31340;51.402;0.016;2023-08-01T00:39:59;19.30;;;5.55;;
44774;SDS011;31340;51.402;0.016;2023-08-01T00:42:27;21.77;;;6.03;;
44774;SDS011;31340;51.402;0.016;2023-08-01T00:44:55;16.42;;;6.32;;
44774;SDS011;31340;51.402;0.016;2023-08-01T00:47:23;18.75;;;5.78;;
44774;SDS011;31340;51.402;0.016;2023-08-01T00:49:51;19.92;;;5.72;;
44774;SDS011;31340;51.402;0.016;2023-08-01T00:52:19;21.15;;;6.50;;
44774;SDS011;31340;51.402;0.016;2023-08-01T00:54:47;15.88;;;7.03;;
44774;SDS011;31340;51.402;0.016;2023-08-01T00:57:15;13.63;;;5.70;;
44774;SDS011;31340;51.402;0.016;2023-08-01T00:59:43;15.32;;;5.72;;
44774;SDS011;31340;51.402;0.016;2023-08-01T01:02:11;17.38;;;6.20;;
44774;SDS011;31340;51.402;0.016;2023-08-01T01:04:39;16.58;;;5.65;;
44774;SDS011;31340;51.402;0.016;2023-08-01T01:07:07;16.42;;;5.80;;
44774;SDS011;31340;51.402;0.016;2023-08-01T01:09:36;17.23;;;5.32;;
44774;SDS011;31340;51.402;0.016;2023-08-01T01:12:04;20.58;;;5.88;;
44774;SDS011;31340;51.402;0.016;2023-08-01T01:14:33;15.20;;;5.43;;
44774;SDS011;31340;51.402;0.016;2023-08-01T01:17:02;18.80;;;6.35;;
44774;SDS011;31340;51.402;0.016;2023-08-01T01:19:30;17.38;;;5.50;;
44774;SDS011;31340;51.402;0.016;2023-08-01T01:21:57;20.02;;;5.65;;
44774;SDS011;31340;51.402;0.016;2023-08-01T01:24:25;24.35;;;6.10;;
44774;SDS011;31340;51.402;0.016;2023-08-01T01:26:55;15.85;;;5.88;;
44774;SDS011;31340;51.402;0.016;2023-08-01T01:29:27;22.85;;;6.80;;
44774;SDS011;31340;51.402;0.016;2023-08-01T01:31:56;17.38;;;6.30;;
44774;SDS011;31340;51.402;0.016;2023-08-01T01:34:27;16.63;;;6.00;;
44774;SDS011;31340;51.402;0.016;2023-08-01T01:36:55;20.83;;;5.70;;
44774;SDS011;31340;51.402;0.016;2023-08-01T01:39:23;14.65;;;5.30;;
44774;SDS011;31340;51.402;0.016;2023-08-01T01:41:50;22.80;;;5.28;;
44774;SDS011;31340;51.402;0.016;2023-08-01T01:44:18;20.85;;;6.28;;
44774;SDS011;31340;51.402;0.016;2023-08-01T01:46:46;15.63;;;5.45;;
44774;SDS011;31340;51.402;0.016;2023-08-01T01:49:16;19.23;;;5.60;;
44774;SDS011;31340;51.402;0.016;2023-08-01T01:51:45;15.85;;;5.85;;
44774;SDS011;31340;51.402;0.016;2023-08-01T01:54:13;16.52;;;5.38;;
44774;SDS011;31340;51.402;0.016;2023-08-01T01:56:41;16.92;;;5.70;;
44774;SDS011;31340;51.402;0.016;2023-08-01T01:59:08;19.55;;;6.32;;
44774;SDS011;31340;51.402;0.016;2023-08-01T02:01:36;19.98;;;6.20;;
44774;SDS011;31340;51.402;0.016;2023-08-01T02:04:04;22.77;;;5.72;;
44774;SDS011;31340;51.402;0.016;2023-08-01T02:06:33;24.13;;;5.50;;
44774;SDS011;31340;51.402;0.016;2023-08-01T02:09:01;15.95;;;5.50;;
44774;SDS011;31340;51.402;0.016;2023-08-01T02:11:30;17.52;;;5.78;;
44774;SDS011;31340;51.402;0.016;2023-08-01T02:13:58;22.20;;;6.00;;
44774;SDS011;31340;51.402;0.016;2023-08-01T02:16:26;18.00;;;5.75;;
44774;SDS011;31340;51.402;0.016;2023-08-01T02:18:53;18.98;;;4.95;;
44774;SDS011;31340;51.402;0.016;2023-08-01T02:21:21;20.10;;;6.43;;
44774;SDS011;31340;51.402;0.016;2023-08-01T02:23:49;14.52;;;5.28;;
44774;SDS011;31340;51.402;0.016;2023-08-01T02:26:17;17.90;;;5.68;;
44774;SDS011;31340;51.402;0.016;2023-08-01T02:28:45;16.73;;;5.18;;
44774;SDS011;31340;51.402;0.016;2023-08-01T02:31:12;16.73;;;5.72;;
44774;SDS011;31340;51.402;0.016;2023-08-01T02:33:40;16.73;;;5.03;;
44774;SDS011;31340;51.402;0.016;2023-08-01T02:36:08;22.75;;;5.65;;
44774;SDS011;31340;51.402;0.016;2023-08-01T02:38:36;14.52;;;5.30;;
44774;SDS011;31340;51.402;0.016;2023-08-01T02:41:03;16.38;;;5.20;;
44774;SDS011;31340;51.402;0.016;2023-08-01T02:43:31;16.58;;;5.45;;
44774;SDS011;31340;51.402;0.016;2023-08-01T02:45:59;19.10;;;5.00;;
44774;SDS011;31340;51.402;0.016;2023-08-01T02:48:28;17.73;;;5.47;;
44774;SDS011;31340;51.402;0.016;2023-08-01T02:50:56;15.55;;;5.57;;
44774;SDS011;31340;51.402;0.016;2023-08-01T02:53:24;19.05;;;5.60;;
44774;SDS011;31340;51.402;0.016;2023-08-01T02:55:51;18.70;;;5.53;;
44774;SDS011;31340;51.402;0.016;2023-08-01T02:58:19;16.67;;;4.95;;
44774;SDS011;31340;51.402;0.016;2023-08-01T03:00:47;14.77;;;5.20;;
44774;SDS011;31340;51.402;0.016;2023-08-01T03:03:14;15.00;;;5.10;;
44774;SDS011;31340;51.402;0.016;2023-08-01T03:05:43;20.20;;;6.03;;
44774;SDS011;31340;51.402;0.016;2023-08-01T03:08:10;19.00;;;5.40;;
44774;SDS011;31340;51.402;0.016;2023-08-01T03:10:38;19.25;;;5.43;;
44774;SDS011;31340;51.402;0.016;2023-08-01T03:13:07;13.38;;;4.78;;
44774;SDS011;31340;51.402;0.016;2023-08-01T03:15:35;20.63;;;6.25;;
44774;SDS011;31340;51.402;0.016;2023-08-01T03:18:03;15.23;;;5.38;;
44774;SDS011;31340;51.402;0.016;2023-08-01T03:20:31;15.32;;;5.35;;
44774;SDS011;31340;51.402;0.016;2023-08-01T03:22:59;18.05;;;5.20;;
44774;SDS011;31340;51.402;0.016;2023-08-01T03:25:26;16.48;;;5.10;;
44774;SDS011;31340;51.402;0.016;2023-08-01T03:27:55;18.23;;;5.28;;
44774;SDS011;31340;51.402;0.016;2023-08-01T03:30:23;14.98;;;5.28;;
44774;SDS011;31340;51.402;0.016;2023-08-01T03:32:53;11.75;;;5.40;;
44774;SDS011;31340;51.402;0.016;2023-08-01T03:35:21;19.30;;;5.63;;
44774;SDS011;31340;51.402;0.016;2023-08-01T03:37:49;18.45;;;4.47;;
44774;SDS011;31340;51.402;0.016;2023-08-01T03:40:16;20.65;;;5.28;;
44774;SDS011;31340;51.402;0.016;2023-08-01T03:42:44;15.00;;;5.18;;
44774;SDS011;31340;51.402;0.016;2023-08-01T03:45:12;15.52;;;5.10;;
44774;SDS011;31340;51.402;0.016;2023-08-01T03:47:39;16.80;;;4.95;;
44774;SDS011;31340;51.402;0.016;2023-08-01T03:50:07;16.88;;;5.30;;
44774;SDS011;31340;51.402;0.016;2023-08-01T03:52:36;22.00;;;5.13;;
44774;SDS011;31340;51.402;0.016;2023-08-01T03:55:03;15.13;;;5.22;;
44774;SDS011;31340;51.402;0.016;2023-08-01T03:57:31;18.55;;;5.10;;
44774;SDS011;31340;51.402;0.016;2023-08-01T04:00:02;15.50;;;4.97;;
44774;SDS011;31340;51.402;0.016;2023-08-01T04:02:41;15.32;;;4.30;;
44774;SDS011;31340;51.402;0.016;2023-08-01T04:05:13;19.23;;;4.78;;
44774;SDS011;31340;51.402;0.016;2023-08-01T04:07:41;18.27;;;5.07;;
44774;SDS011;31340;51.402;0.016;2023-08-01T04:10:10;14.23;;;5.43;;
44774;SDS011;31340;51.402;0.016;2023-08-01T04:12:37;18.25;;;5.28;;
44774;SDS011;31340;51.402;0.016;2023-08-01T04:15:05;21.83;;;4.82;;
44774;SDS011;31340;51.402;0.016;2023-08-01T04:17:33;19.50;;;4.65;;
44774;SDS011;31340;51.402;0.016;2023-08-01T04:20:01;19.00;;;5.50;;
44774;SDS011;31340;51.402;0.016;2023-08-01T04:22:29;14.98;;;4.00;;
44774;SDS011;31340;51.402;0.016;2023-08-01T04:24:57;16.67;;;4.38;;
44774;SDS011;31340;51.402;0.016;2023-08-01T04:27:24;16.88;;;4.60;;
44774;SDS011;31340;51.402;0.016;2023-08-01T04:29:52;19.48;;;4.40;;
44774;SDS011;31340;51.402;0.016;2023-08-01T04:32:22;13.95;;;4.13;;
44774;SDS011;31340;51.402;0.016;2023-08-01T04:34:49;14.90;;;4.00;;
44774;SDS011;31340;51.402;0.016;2023-08-01T04:37:17;14.82;;;3.97;;
44774;SDS011;31340;51.402;0.016;2023-08-01T04:39:49;16.48;;;4.13;;
44774;SDS011;31340;51.402;0.016;2023-08-01T04:42:16;18.10;;;4.65;;
44774;SDS011;31340;51.402;0.016;2023-08-01T04:44:44;16.85;;;4.22;;
44774;SDS011;31340;51.402;0.016;2023-08-01T04:47:13;16.00;;;4.45;;
44774;SDS011;31340;51.402;0.016;2023-08-01T04:49:41;17.33;;;4.50;;
44774;SDS011;31340;51.402;0.016;2023-08-01T04:52:09;18.05;;;5.05;;
44774;SDS011;31340;51.402;0.016;2023-08-01T04:54:36;16.55;;;4.05;;
44774;SDS011;31340;51.402;0.016;2023-08-01T04:57:04;14.63;;;3.67;;
44774;SDS011;31340;51.402;0.016;2023-08-01T04:59:32;19.38;;;4.40;;
44774;SDS011;31340;51.402;0.016;2023-08-01T05:02:00;12.75;;;3.47;;
44774;SDS011;31340;51.402;0.016;2023-08-01T05:04:28;16.15;;;4.13;;
44774;SDS011;31340;51.402;0.016;2023-08-01T05:06:55;15.45;;;3.38;;
44774;SDS011;31340;51.402;0.016;2023-08-01T05:09:23;19.02;;;4.43;;
44774;SDS011;31340;51.402;0.016;2023-08-01T05:11:50;15.55;;;4.30;;
44774;SDS011;31340;51.402;0.016;2023-08-01T05:14:18;15.85;;;3.55;;
44774;SDS011;31340;51.402;0.016;2023-08-01T05:16:46;13.23;;;4.10;;
44774;SDS011;31340;51.402;0.016;2023-08-01T05:19:14;13.23;;;4.10;;
44774;SDS011;31340;51.402;0.016;2023-08-01T05:21:41;16.77;;;4.13;;
44774;SDS011;31340;51.402;0.016;2023-08-01T05:24:09;13.95;;;4.38;;
44774;SDS011;31340;51.402;0.016;2023-08-01T05:26:37;21.88;;;4.90;;
44774;SDS011;31340;51.402;0.016;2023-08-01T05:29:06;17.55;;;4.65;;
44774;SDS011;31340;51.402;0.016;2023-08-01T05:31:33;14.75;;;4.05;;
44774;SDS011;31340;51.402;0.016;2023-08-01T05:34:01;13.55;;;4.40;;
44774;SDS011;31340;51.402;0.016;2023-08-01T05:36:29;14.20;;;4.28;;
44774;SDS011;31340;51.402;0.016;2023-08-01T05:38:57;12.68;;;4.00;;
44774;SDS011;31340;51.402;0.016;2023-08-01T05:41:24;11.52;;;3.65;;
44774;SDS011;31340;51.402;0.016;2023-08-01T05:43:52;9.32;;;3.50;;
44774;SDS011;31340;51.402;0.016;2023-08-01T05:46:20;14.02;;;4.22;;
44774;SDS011;31340;51.402;0.016;2023-08-01T05:48:48;17.75;;;4.38;;
44774;SDS011;31340;51.402;0.016;2023-08-01T05:51:16;12.90;;;3.78;;
44774;SDS011;31340;51.402;0.016;2023-08-01T05:53:44;15.60;;;4.47;;
44774;SDS011;31340;51.402;0.016;2023-08-01T05:56:12;20.88;;;4.03;;
44774;SDS011;31340;51.402;0.016;2023-08-01T05:58:40;17.00;;;4.22;;
44774;SDS011;31340;51.402;0.016;2023-08-01T06:03:39;13.30;;;3.90;;
44774;SDS011;31340;51.402;0.016;2023-08-01T06:06:07;10.55;;;3.20;;
44774;SDS011;31340;51.402;0.016;2023-08-01T06:08:35;11.82;;;3.50;;
44774;SDS011;31340;51.402;0.016;2023-08-01T06:11:03;12.25;;;3.67;;
44774;SDS011;31340;51.402;0.016;2023-08-01T06:13:30;16.67;;;4.50;;
44774;SDS011;31340;51.402;0.016;2023-08-01T06:15:58;12.82;;;3.72;;
44774;SDS011;31340;51.402;0.016;2023-08-01T06:18:26;17.88;;;3.75;;
44774;SDS011;31340;51.402;0.016;2023-08-01T06:20:54;12.10;;;3.17;;
44774;SDS011;31340;51.402;0.016;2023-08-01T06:23:21;15.70;;;4.10;;
44774;SDS011;31340;51.402;0.016;2023-08-01T06:25:49;8.70;;;3.13;;
44774;SDS011;31340;51.402;0.016;2023-08-01T06:28:16;11.73;;;3.15;;
44774;SDS011;31340;51.402;0.016;2023-08-01T06:30:45;17.00;;;3.40;;
44774;SDS011;31340;51.402;0.016;2023-08-01T06:33:13;17.08;;;3.47;;
44774;SDS011;31340;51.402;0.016;2023-08-01T06:35:40;18.38;;;3.42;;
44774;SDS011;31340;51.402;0.016;2023-08-01T06:38:08;20.00;;;3.97;;
44774;SDS011;31340;51.402;0.016;2023-08-01T06:40:35;14.38;;;3.50;;
44774;SDS011;31340;51.402;0.016;2023-08-01T06:43:03;19.88;;;4.75;;
44774;SDS011;31340;51.402;0.016;2023-08-01T06:45:31;17.40;;;4.43;;
44774;SDS011;31340;51.402;0.016;2023-08-01T06:47:58;15.98;;;4.47;;
44774;SDS011;31340;51.402;0.016;2023-08-01T06:50:26;14.55;;;3.75;;
44774;SDS011;31340;51.402;0.016;2023-08-01T06:52:53;14.05;;;3.65;;
44774;SDS011;31340;51.402;0.016;2023-08-01T06:55:21;12.90;;;3.28;;
44774;SDS011;31340;51.402;0.016;2023-08-01T06:57:49;15.13;;;3.70;;
44774;SDS011;31340;51.402;0.016;2023-08-01T07:00:16;11.35;;;4.05;;
44774;SDS011;31340;51.402;0.016;2023-08-01T07:02:45;13.05;;;3.25;;
44774;SDS011;31340;51.402;0.016;2023-08-01T07:05:13;12.18;;;3.38;;
44774;SDS011;31340;51.402;0.016;2023-08-01T07:07:40;13.57;;;3.30;;
44774;SDS011;31340;51.402;0.016;2023-08-01T07:10:08;13.85;;;3.55;;
44774;SDS011;31340;51.402;0.016;2023-08-01T07:12:36;10.68;;;3.22;;
44774;SDS011;31340;51.402;0.016;2023-08-01T07:15:04;11.88;;;3.35;;
44774;SDS011;31340;51.402;0.016;2023-08-01T07:17:32;12.13;;;2.90;;
44774;SDS011;31340;51.402;0.016;2023-08-01T07:19:59;12.65;;;3.65;;
44774;SDS011;31340;51.402;0.016;2023-08-01T07:22:27;10.02;;;3.03;;
44774;SDS011;31340;51.402;0.016;2023-08-01T07:24:55;8.98;;;2.85;;
44774;SDS011;31340;51.402;0.016;2023-08-01T07:27:22;7.43;;;2.38;;
44774;SDS011;31340;51.402;0.016;2023-08-01T07:29:50;8.50;;;2.60;;
44774;SDS011;31340;51.402;0.016;2023-08-01T07:32:17;10.25;;;2.70;;
44774;SDS011;31340;51.402;0.016;2023-08-01T07:34:45;9.60;;;3.38;;
44774;SDS011;31340;51.402;0.016;2023-08-01T07:37:12;9.30;;;3.20;;
44774;SDS011;31340;51.402;0.016;2023-08-01T07:39:40;14.15;;;2.92;;
44774;SDS011;31340;51.402;0.016;2023-08-01T07:42:08;8.48;;;2.42;;
44774;SDS011;31340;51.402;0.016;2023-08-01T07:44:35;14.02;;;2.97;;
44774;SDS011;31340;51.402;0.016;2023-08-01T07:47:04;13.18;;;2.90;;
44774;SDS011;31340;51.402;0.016;2023-08-01T07:49:33;8.07;;;2.58;;
44774;SDS011;31340;51.402;0.016;2023-08-01T07:52:00;14.60;;;3.47;;
44774;SDS011;31340;51.402;0.016;2023-08-01T07:54:28;13.80;;;3.30;;
44774;SDS011;31340;51.402;0.016;2023-08-01T07:56:55;11.35;;;2.70;;
44774;SDS011;31340;51.402;0.016;2023-08-01T07:59:23;9.00;;;2.88;;
44774;SDS011;31340;51.402;0.016;2023-08-01T08:01:50;12.73;;;2.42;;
44774;SDS011;31340;51.402;0.016;2023-08-01T08:04:19;15.13;;;2.72;;
44774;SDS011;31340;51.402;0.016;2023-08-01T08:06:47;12.02;;;2.30;;
44774;SDS011;31340;51.402;0.016;2023-08-01T08:09:15;9.20;;;2.63;;
44774;SDS011;31340;51.402;0.016;2023-08-01T08:11:42;11.88;;;3.42;;
44774;SDS011;31340;51.402;0.016;2023-08-01T08:14:11;7.82;;;2.53;;
44774;SDS011;31340;51.402;0.016;2023-08-01T08:16:41;8.77;;;1.92;;
44774;SDS011;31340;51.402;0.016;2023-08-01T08:19:10;9.13;;;2.67;;
44774;SDS011;31340;51.402;0.016;2023-08-01T08:21:38;9.68;;;2.35;;
44774;SDS011;31340;51.402;0.016;2023-08-01T08:24:05;5.63;;;1.80;;
44774;SDS011;31340;51.402;0.016;2023-08-01T08:26:33;15.93;;;2.35;;
44774;SDS011;31340;51.402;0.016;2023-08-01T08:29:05;9.25;;;1.70;;
44774;SDS011;31340;51.402;0.016;2023-08-01T08:31:32;10.30;;;2.45;;
44774;SDS011;31340;51.402;0.016;2023-08-01T08:34:00;7.38;;;2.10;;
44774;SDS011;31340;51.402;0.016;2023-08-01T08:36:28;5.05;;;1.60;;
44774;SDS011;31340;51.402;0.016;2023-08-01T08:38:56;6.82;;;2.00;;
44774;SDS011;31340;51.402;0.016;2023-08-01T08:41:23;8.18;;;2.17;;
44774;SDS011;31340;51.402;0.016;2023-08-01T08:46:25;7.70;;;2.17;;
44774;SDS011;31340;51.402;0.016;2023-08-01T08:48:57;10.30;;;2.10;;
44774;SDS011;31340;51.402;0.016;2023-08-01T08:51:27;6.93;;;2.00;;
44774;SDS011;31340;51.402;0.016;2023-08-01T08:53:56;4.80;;;1.70;;
44774;SDS011;31340;51.402;0.016;2023-08-01T08:56:26;6.75;;;1.88;;
44774;SDS011;31340;51.402;0.016;2023-08-01T08:58:56;7.38;;;2.08;;
44774;SDS011;31340;51.402;0.016;2023-08-01T09:01:24;5.10;;;1.67;;
44774;SDS011;31340;51.402;0.016;2023-08-01T09:03:53;4.88;;;1.38;;
44774;SDS011;31340;51.402;0.016;2023-08-01T09:06:32;7.10;;;1.77;;
44774;SDS011;31340;51.402;0.016;2023-08-01T09:09:11;6.13;;;1.40;;
44774;SDS011;31340;51.402;0.016;2023-08-01T09:14:07;4.60;;;1.60;;
44774;SDS011;31340;51.402;0.016;2023-08-01T09:16:35;3.72;;;1.10;;
44774;SDS011;31340;51.402;0.016;2023-08-01T09:19:05;3.78;;;1.40;;
44774;SDS011;31340;51.402;0.016;2023-08-01T09:21:34;3.07;;;1.23;;
44774;SDS011;31340;51.402;0.016;2023-08-01T09:24:12;5.25;;;1.40;;
44774;SDS011;31340;51.402;0.016;2023-08-01T09:26:45;5.20;;;1.80;;
44774;SDS011;31340;51.402;0.016;2023-08-01T09:29:15;3.78;;;1.30;;
44774;SDS011;31340;51.402;0.016;2023-08-01T09:31:44;5.63;;;1.92;;
44774;SDS011;31340;51.402;0.016;2023-08-01T09:34:21;6.70;;;1.50;;
44774;SDS011;31340;51.402;0.016;2023-08-01T09:36:50;6.00;;;1.38;;
44774;SDS011;31340;51.402;0.016;2023-08-01T09:39:24;6.43;;;1.50;;
44774;SDS011;31340;51.402;0.016;2023-08-01T09:41:58;6.95;;;1.42;;
44774;SDS011;31340;51.402;0.016;2023-08-01T09:44:27;5.50;;;1.67;;
44774;SDS011;31340;51.402;0.016;2023-08-01T09:49:30;4.78;;;1.75;;
44774;SDS011;31340;51.402;0.016;2023-08-01T09:51:59;6.88;;;1.50;;
44774;SDS011;31340;51.402;0.016;2023-08-01T09:54:28;5.95;;;1.30;;
44774;SDS011;31340;51.402;0.016;2023-08-01T09:56:56;5.97;;;1.50;;
44774;SDS011;31340;51.402;0.016;2023-08-01T09:59:26;4.32;;;1.52;;
44774;SDS011;31340;51.402;0.016;2023-08-01T10:01:54;5.38;;;1.50;;
44774;SDS011;31340;51.402;0.016;2023-08-01T10:04:27;7.47;;;1.83;;
44774;SDS011;31340;51.402;0.016;2023-08-01T10:07:00;4.78;;;1.42;;
44774;SDS011;31340;51.402;0.016;2023-08-01T10:09:38;5.47;;;1.40;;
44774;SDS011;31340;51.402;0.016;2023-08-01T10:12:07;4.90;;;1.40;;
44774;SDS011;31340;51.402;0.016;2023-08-01T10:14:39;4.57;;;1.33;;
44774;SDS011;31340;51.402;0.016;2023-08-01T10:17:08;3.80;;;1.40;;
44774;SDS011;31340;51.402;0.016;2023-08-01T10:19:37;4.05;;;1.13;;
44774;SDS011;31340;51.402;0.016;2023-08-01T10:22:06;5.18;;;1.55;;
44774;SDS011;31340;51.402;0.016;2023-08-01T10:24:34;5.15;;;2.00;;
44774;SDS011;31340;51.402;0.016;2023-08-01T10:27:10;5.07;;;1.55;;
44774;SDS011;31340;51.402;0.016;2023-08-01T10:29:42;5.03;;;1.88;;
44774;SDS011;31340;51.402;0.016;2023-08-01T10:32:10;9.77;;;1.70;;
44774;SDS011;31340;51.402;0.016;2023-08-01T10:34:38;3.13;;;1.58;;
44774;SDS011;31340;51.402;0.016;2023-08-01T10:37:06;3.15;;;1.30;;
44774;SDS011;31340;51.402;0.016;2023-08-01T10:39:34;6.22;;;1.30;;
44774;SDS011;31340;51.402;0.016;2023-08-01T10:42:02;5.22;;;1.80;;
44774;SDS011;31340;51.402;0.016;2023-08-01T10:44:32;6.65;;;1.52;;
44774;SDS011;31340;51.402;0.016;2023-08-01T10:47:02;3.00;;;1.42;;
44774;SDS011;31340;51.402;0.016;2023-08-01T10:49:38;5.07;;;1.35;;
44774;SDS011;31340;51.402;0.016;2023-08-01T10:52:16;3.50;;;1.40;;
44774;SDS011;31340;51.402;0.016;2023-08-01T10:54:46;2.85;;;1.23;;
44774;SDS011;31340;51.402;0.016;2023-08-01T10:57:17;7.60;;;1.70;;
44774;SDS011;31340;51.402;0.016;2023-08-01T10:59:45;5.05;;;1.38;;
44774;SDS011;31340;51.402;0.016;2023-08-01T11:02:19;4.68;;;1.30;;
44774;SDS011;31340;51.402;0.016;2023-08-01T11:04:58;6.88;;;1.42;;
44774;SDS011;31340;51.402;0.016;2023-08-01T11:07:27;5.47;;;1.45;;
44774;SDS011;31340;51.402;0.016;2023-08-01T11:10:05;4.10;;;1.27;;
44774;SDS011;31340;51.402;0.016;2023-08-01T11:12:37;3.70;;;1.50;;
44774;SDS011;31340;51.402;0.016;2023-08-01T11:15:07;4.35;;;1.25;;
44774;SDS011;31340;51.402;0.016;2023-08-01T11:17:47;3.75;;;1.35;;
44774;SDS011;31340;51.402;0.016;2023-08-01T11:20:21;5.35;;;1.38;;
44774;SDS011;31340;51.402;0.016;2023-08-01T11:22:53;4.50;;;1.00;;
44774;SDS011;31340;51.402;0.016;2023-08-01T11:25:36;5.13;;;1.15;;
44774;SDS011;31340;51.402;0.016;2023-08-01T11:28:11;5.43;;;2.10;;
44774;SDS011;31340;51.402;0.016;2023-08-01T11:30:41;3.25;;;1.25;;
44774;SDS011;31340;51.402;0.016;2023-08-01T11:33:13;4.20;;;1.20;;
44774;SDS011;31340;51.402;0.016;2023-08-01T11:35:42;2.40;;;1.00;;
44774;SDS011;31340;51.402;0.016;2023-08-01T11:38:10;5.38;;;1.40;;
44774;SDS011;31340;51.402;0.016;2023-08-01T11:40:38;3.05;;;1.20;;
44774;SDS011;31340;51.402;0.016;2023-08-01T11:43:07;4.50;;;0.90;;
44774;SDS011;31340;51.402;0.016;2023-08-01T11:45:34;2.97;;;1.02;;
44774;SDS011;31340;51.402;0.016;2023-08-01T11:48:02;3.85;;;1.00;;
44774;SDS011;31340;51.402;0.016;2023-08-01T11:50:30;3.63;;;1.13;;
44774;SDS011;31340;51.402;0.016;2023-08-01T11:52:57;4.82;;;1.70;;
44774;SDS011;31340;51.402;0.016;2023-08-01T11:55:26;5.13;;;1.42;;
44774;SDS011;31340;51.402;0.016;2023-08-01T11:57:55;2.53;;;1.10;;
44774;SDS011;31340;51.402;0.016;2023-08-01T12:00:24;2.90;;;0.95;;
44774;SDS011;31340;51.402;0.016;2023-08-01T12:03:03;3.30;;;1.55;;
44774;SDS011;31340;51.402;0.016;2023-08-01T12:05:40;3.13;;;1.00;;
44774;SDS011;31340;51.402;0.016;2023-08-01T12:08:11;3.55;;;1.27;;
44774;SDS011;31340;51.402;0.016;2023-08-01T12:10:42;2.17;;;0.90;;
44774;SDS011;31340;51.402;0.016;2023-08-01T12:13:20;3.50;;;1.30;;
44774;SDS011;31340;51.402;0.016;2023-08-01T12:15:53;4.43;;;1.50;;
44774;SDS011;31340;51.402;0.016;2023-08-01T12:18:26;2.03;;;0.95;;
44774;SDS011;31340;51.402;0.016;2023-08-01T12:21:15;2.65;;;1.00;;
44774;SDS011;31340;51.402;0.016;2023-08-01T12:23:43;2.95;;;1.10;;
44774;SDS011;31340;51.402;0.016;2023-08-01T12:26:11;3.00;;;1.48;;
44774;SDS011;31340;51.402;0.016;2023-08-01T12:28:39;5.55;;;1.30;;
44774;SDS011;31340;51.402;0.016;2023-08-01T12:31:06;3.50;;;1.27;;
44774;SDS011;31340;51.402;0.016;2023-08-01T12:33:34;4.22;;;1.05;;
44774;SDS011;31340;51.402;0.016;2023-08-01T12:36:02;3.53;;;1.50;;
44774;SDS011;31340;51.402;0.016;2023-08-01T12:38:30;2.03;;;1.10;;
44774;SDS011;31340;51.402;0.016;2023-08-01T12:40:58;3.33;;;1.10;;
44774;SDS011;31340;51.402;0.016;2023-08-01T12:43:26;3.72;;;1.23;;
44774;SDS011;31340;51.402;0.016;2023-08-01T12:45:54;5.00;;;1.40;;
44774;SDS011;31340;51.402;0.016;2023-08-01T12:48:26;2.20;;;1.10;;
44774;SDS011;31340;51.402;0.016;2023-08-01T12:50:55;5.47;;;1.75;;
44774;SDS011;31340;51.402;0.016;2023-08-01T12:53:23;6.47;;;1.52;;
44774;SDS011;31340;51.402;0.016;2023-08-01T12:55:56;4.07;;;1.42;;
44774;SDS011;31340;51.402;0.016;2023-08-01T12:58:24;5.18;;;1.38;;
44774;SDS011;31340;51.402;0.016;2023-08-01T13:00:52;2.67;;;1.13;;
44774;SDS011;31340;51.402;0.016;2023-08-01T13:03:22;5.15;;;1.52;;
44774;SDS011;31340;51.402;0.016;2023-08-01T13:05:50;6.05;;;1.65;;
44774;SDS011;31340;51.402;0.016;2023-08-01T13:08:20;3.25;;;1.45;;
44774;SDS011;31340;51.402;0.016;2023-08-01T13:10:47;3.28;;;1.23;;
44774;SDS011;31340;51.402;0.016;2023-08-01T13:13:16;5.50;;;1.92;;
44774;SDS011;31340;51.402;0.016;2023-08-01T13:15:44;2.90;;;1.38;;
44774;SDS011;31340;51.402;0.016;2023-08-01T13:18:13;5.03;;;1.60;;
44774;SDS011;31340;51.402;0.016;2023-08-01T13:20:41;5.50;;;1.40;;
44774;SDS011;31340;51.402;0.016;2023-08-01T13:23:09;3.17;;;1.33;;
44774;SDS011;31340;51.402;0.016;2023-08-01T13:25:37;3.75;;;1.40;;
44774;SDS011;31340;51.402;0.016;2023-08-01T13:28:06;6.93;;;1.35;;
44774;SDS011;31340;51.402;0.016;2023-08-01T13:30:33;4.15;;;1.63;;
44774;SDS011;31340;51.402;0.016;2023-08-01T13:33:01;3.17;;;1.50;;
44774;SDS011;31340;51.402;0.016;2023-08-01T13:35:29;5.82;;;1.77;;
44774;SDS011;31340;51.402;0.016;2023-08-01T13:37:56;4.68;;;1.52;;
44774;SDS011;31340;51.402;0.016;2023-08-01T13:40:25;3.55;;;1.58;;
44774;SDS011;31340;51.402;0.016;2023-08-01T13:42:53;5.30;;;1.60;;
44774;SDS011;31340;51.402;0.016;2023-08-01T13:45:20;3.28;;;1.35;;
44774;SDS011;31340;51.402;0.016;2023-08-01T13:47:48;6.38;;;1.83;;
44774;SDS011;31340;51.402;0.016;2023-08-01T13:50:16;7.40;;;1.88;;
44774;SDS011;31340;51.402;0.016;2023-08-01T13:52:44;3.80;;;1.63;;
44774;SDS011;31340;51.402;0.016;2023-08-01T13:55:12;2.85;;;1.50;;
44774;SDS011;31340;51.402;0.016;2023-08-01T13:57:40;4.05;;;1.42;;
44774;SDS011;31340;51.402;0.016;2023-08-01T14:00:09;3.67;;;1.40;;
44774;SDS011;31340;51.402;0.016;2023-08-01T14:02:44;6.03;;;1.90;;
44774;SDS011;31340;51.402;0.016;2023-08-01T14:05:11;2.95;;;1.30;;
44774;SDS011;31340;51.402;0.016;2023-08-01T14:07:39;4.95;;;1.63;;
44774;SDS011;31340;51.402;0.016;2023-08-01T14:10:10;5.25;;;1.92;;
44774;SDS011;31340;51.402;0.016;2023-08-01T14:12:38;5.95;;;2.00;;
44774;SDS011;31340;51.402;0.016;2023-08-01T14:15:06;5.47;;;1.42;;
44774;SDS011;31340;51.402;0.016;2023-08-01T14:17:34;4.05;;;1.77;;
44774;SDS011;31340;51.402;0.016;2023-08-01T14:20:02;3.65;;;1.40;;
44774;SDS011;31340;51.402;0.016;2023-08-01T14:22:31;2.13;;;1.35;;
44774;SDS011;31340;51.402;0.016;2023-08-01T14:24:58;3.72;;;1.50;;
44774;SDS011;31340;51.402;0.016;2023-08-01T14:27:26;7.10;;;1.83;;
44774;SDS011;31340;51.402;0.016;2023-08-01T14:29:54;2.13;;;1.50;;
44774;SDS011;31340;51.402;0.016;2023-08-01T14:32:22;3.45;;;1.55;;
44774;SDS011;31340;51.402;0.016;2023-08-01T14:34:50;5.85;;;1.80;;
44774;SDS011;31340;51.402;0.016;2023-08-01T14:37:18;6.28;;;1.40;;
44774;SDS011;31340;51.402;0.016;2023-08-01T14:39:46;3.75;;;1.73;;
44774;SDS011;31340;51.402;0.016;2023-08-01T14:42:14;2.65;;;1.40;;
44774;SDS011;31340;51.402;0.016;2023-08-01T14:44:41;4.72;;;1.50;;
44774;SDS011;31340;51.402;0.016;2023-08-01T14:47:09;2.53;;;1.30;;
44774;SDS011;31340;51.402;0.016;2023-08-01T14:49:36;2.25;;;1.35;;
44774;SDS011;31340;51.402;0.016;2023-08-01T14:52:05;2.78;;;1.38;;
44774;SDS011;31340;51.402;0.016;2023-08-01T14:54:33;1.90;;;1.20;;
44774;SDS011;31340;51.402;0.016;2023-08-01T14:57:07;3.65;;;1.30;;
44774;SDS011;31340;51.402;0.016;2023-08-01T14:59:35;2.03;;;1.10;;